M I D A S
Marine Information and Data Acquisition System
Tripno 313 of the Zeeleeuw from 2002-04-16 07:30:55 to 2002-04-16 14:15:32
Back to CruiseResearch ActivitiesStationsMapUnderway DataData graphs

EquipmentUnitsComment
TimeDGPSUTC
LatitudeDGPSDM.mWGS84
LongitudeDGPSDM.mWGS84
HeadingGyrodeg 
SOGDGPSknotsSpeed over ground
COGDGPSdegCourse over ground
DepthEcho soundermeters200 kHz
Missing or incorrect values are displayed as -999
Navigation data collected by the RV Zeeleeuw from 2002-04-16 07:30:55 to 2002-04-16 14:15:32
                                                                                    Next 1000 lines
Time Latitude Longitude Heading SOG COG Depth
2002-04-16 07:31:03 51°13.687 2°55.905 112 0.1 208.5 7
2002-04-16 07:31:08 51°13.686 2°55.905 111.2 0.1 203.3 7.1
2002-04-16 07:31:13 51°13.686 2°55.905 110.2 0.2 191.2 7.1
2002-04-16 07:31:18 51°13.686 2°55.905 109.3 0.1 184.1 7.1
2002-04-16 07:31:23 51°13.686 2°55.905 108.5 0.1 193.4 7.1
2002-04-16 07:31:28 51°13.686 2°55.905 107.5 0.1 196.1 7.1
2002-04-16 07:31:33 51°13.686 2°55.905 106.7 0.1 187.5 7.1
2002-04-16 07:31:38 51°13.686 2°55.905 106 0.1 193.4 7.1
2002-04-16 07:31:43 51°13.686 2°55.905 105 0.1 197.2 7.1
2002-04-16 07:31:47 51°13.686 2°55.905 104.2 0.1 194.2 7.1
2002-04-16 07:31:53 51°13.686 2°55.905 103.5 0.1 203.9 7.1
2002-04-16 07:31:58 51°13.686 2°55.904 102.8 0.1 240.3 7.1
2002-04-16 07:32:03 51°13.686 2°55.903 102.3 0.2 276.4 7.1
2002-04-16 07:32:08 51°13.686 2°55.902 101.7 0.4 282.9 7.1
2002-04-16 07:32:13 51°13.687 2°55.9 101.2 0.8 285.3 7.2
2002-04-16 07:32:18 51°13.687 2°55.897 100.7 1 285.2 7.3
2002-04-16 07:32:23 51°13.688 2°55.894 100.3 1.4 283.9 7.2
2002-04-16 07:32:28 51°13.688 2°55.89 99.7 1.6 284.3 5.4
2002-04-16 07:32:34 51°13.689 2°55.884 98.7 2 283.1 -999
2002-04-16 07:32:38 51°13.689 2°55.881 97.3 2.1 281.4 -999
2002-04-16 07:32:43 51°13.69 2°55.876 95.8 2.2 279.4 -999
2002-04-16 07:32:49 51°13.69 2°55.87 94.5 2.3 278 -999
2002-04-16 07:32:53 51°13.691 2°55.866 93 2.3 276.2 -999
2002-04-16 07:32:58 51°13.691 2°55.86 91.5 2.4 274 -999
2002-04-16 07:33:04 51°13.692 2°55.854 90.3 2.4 272.9 -999
2002-04-16 07:33:09 51°13.692 2°55.848 89 2.5 271.3 -999
2002-04-16 07:33:14 51°13.691 2°55.842 87.7 2.5 269.7 -999
2002-04-16 07:33:18 51°13.691 2°55.838 86.7 2.6 267.6 -999
2002-04-16 07:33:23 51°13.691 2°55.832 86 2.6 266.9 -999
2002-04-16 07:33:29 51°13.691 2°55.824 85.3 2.7 265.2 -999
2002-04-16 07:33:34 51°13.69 2°55.818 85 2.7 264.7 -999
2002-04-16 07:33:39 51°13.69 2°55.813 85 2.7 264.2 -999
2002-04-16 07:33:43 51°13.69 2°55.808 85.2 2.7 264.6 -999
2002-04-16 07:33:49 51°13.689 2°55.801 85.5 2.7 264.5 -999
2002-04-16 07:33:53 51°13.689 2°55.796 85.7 2.7 265 -999
2002-04-16 07:33:58 51°13.689 2°55.79 85.7 2.7 265.9 9.4
2002-04-16 07:34:03 51°13.688 2°55.784 85.2 2.7 266.6 -999
2002-04-16 07:34:09 51°13.688 2°55.777 84.5 2.6 266.4 -999
2002-04-16 07:34:13 51°13.688 2°55.773 83.7 2.5 265.5 11.8
2002-04-16 07:34:18 51°13.687 2°55.767 83 2.4 263.7 12.3
2002-04-16 07:34:22 51°13.687 2°55.763 82.7 2.4 262.4 11.9
2002-04-16 07:34:28 51°13.686 2°55.757 82.3 2.4 261.5 12.2
2002-04-16 07:34:33 51°13.686 2°55.753 82 2.2 261 11
2002-04-16 07:34:39 51°13.686 2°55.749 81 1.8 260.9 -999
2002-04-16 07:34:43 51°13.685 2°55.749 78 1.2 260 12
2002-04-16 07:34:48 51°13.686 2°55.749 73 0.9 260.3 11.8
2002-04-16 07:34:53 51°13.686 2°55.751 66.7 0.4 55 11.7
2002-04-16 07:34:58 51°13.687 2°55.754 57.8 1.3 56.8 12.1
2002-04-16 07:35:03 51°13.689 2°55.757 50.3 1.7 51.1 12
2002-04-16 07:35:08 51°13.692 2°55.76 42.7 2 45.7 13
2002-04-16 07:35:13 51°13.694 2°55.762 35.8 2.1 37.9 13.3
2002-04-16 07:35:18 51°13.697 2°55.764 31.3 2 33.8 13
2002-04-16 07:35:23 51°13.698 2°55.766 29 1.8 30.2 13.1
2002-04-16 07:35:28 51°13.7 2°55.768 26.7 1.6 30.5 12.3
2002-04-16 07:35:33 51°13.701 2°55.768 24.2 1.1 30.9 12.1
2002-04-16 07:35:38 51°13.701 2°55.769 21.8 0.7 33.7 12
2002-04-16 07:35:42 51°13.701 2°55.769 20.5 0.1 79.5 12.1
2002-04-16 07:35:48 51°13.7 2°55.769 20 0.3 175.2 12.4
2002-04-16 07:35:53 51°13.698 2°55.768 20 0.9 189.8 12.9
2002-04-16 07:35:58 51°13.696 2°55.767 20.8 1.3 192.2 -999
2002-04-16 07:36:03 51°13.693 2°55.766 21.8 1.7 196.1 -999
2002-04-16 07:36:09 51°13.69 2°55.764 23.5 1.8 196.9 -999
2002-04-16 07:36:13 51°13.689 2°55.763 24.5 1.6 199.6 -999
2002-04-16 07:36:18 51°13.688 2°55.763 24 1.1 199.3 -999
2002-04-16 07:36:23 51°13.689 2°55.763 19 0.4 197.4 -999
2002-04-16 07:36:29 51°13.691 2°55.764 13 0.7 5.4 -999
2002-04-16 07:36:33 51°13.694 2°55.764 4.7 1.7 5.1 -999
2002-04-16 07:36:39 51°13.699 2°55.763 355.7 2.5 358.1 -999
2002-04-16 07:36:44 51°13.704 2°55.761 347.5 3.2 352.5 -999
2002-04-16 07:36:49 51°13.71 2°55.757 340.5 4.1 343.3 -999
2002-04-16 07:36:53 51°13.716 2°55.753 334.8 4.7 338.3 11.7
2002-04-16 07:36:58 51°13.723 2°55.747 331.8 5.3 334.8 10.2
2002-04-16 07:37:03 51°13.73 2°55.74 330.7 5.8 332.1 9.5
2002-04-16 07:37:07 51°13.736 2°55.735 332 6.1 331.2 8.7
2002-04-16 07:37:13 51°13.746 2°55.726 330.5 6.4 330.9 9
2002-04-16 07:37:18 51°13.754 2°55.719 328.8 6.6 329.1 8.9
2002-04-16 07:37:23 51°13.762 2°55.71 327.8 6.8 326.9 8.5
2002-04-16 07:37:27 51°13.768 2°55.703 328.2 7 325.7 8.8
2002-04-16 07:37:32 51°13.776 2°55.694 328.8 7.1 325.6 9.1
2002-04-16 07:37:38 51°13.786 2°55.684 329.8 7.1 326.1 9.1
2002-04-16 07:37:43 51°13.795 2°55.676 330.8 7 327.6 9.2
2002-04-16 07:37:48 51°13.803 2°55.668 332.5 6.9 328.8 9.3
2002-04-16 07:37:53 51°13.811 2°55.661 334.2 6.7 330.8 9.3
2002-04-16 07:37:58 51°13.819 2°55.655 335.8 6.6 332.1 9.3
2002-04-16 07:38:03 51°13.827 2°55.649 337.2 6.5 334 9.2
2002-04-16 07:38:08 51°13.835 2°55.643 337.8 6.4 334.7 9.1
2002-04-16 07:38:12 51°13.841 2°55.639 338.2 6.3 335.3 9.2
2002-04-16 07:38:18 51°13.851 2°55.632 338.7 6.2 335.7 9.1
2002-04-16 07:38:23 51°13.858 2°55.627 338.8 6.1 336 9
2002-04-16 07:38:27 51°13.864 2°55.622 338.8 6.1 336 9
2002-04-16 07:38:33 51°13.874 2°55.616 338.7 6 336.3 9
2002-04-16 07:38:38 51°13.881 2°55.611 339 6 336.5 9.1
2002-04-16 07:38:42 51°13.887 2°55.607 339.5 5.9 337 9.1
2002-04-16 07:38:48 51°13.896 2°55.601 339.7 3.8 337.2 9.1
2002-04-16 07:38:53 51°13.904 2°55.596 339 4.5 336.9 9.1
2002-04-16 07:38:58 51°13.911 2°55.59 338.2 5.6 336.1 9.1
2002-04-16 07:39:02 51°13.917 2°55.586 337.8 5.8 335.7 9.1
2002-04-16 07:39:07 51°13.924 2°55.581 337.7 5.8 335.4 9.1
2002-04-16 07:39:13 51°13.933 2°55.575 337.5 5.7 335.4 9
2002-04-16 07:39:18 51°13.94 2°55.57 337.2 5.7 335.2 9
2002-04-16 07:39:23 51°13.947 2°55.564 336.8 5.6 335.2 9.1
2002-04-16 07:39:28 51°13.954 2°55.559 336.7 5.6 334.9 9.1
2002-04-16 07:39:33 51°13.961 2°55.554 336.2 5.6 334.8 9.2
2002-04-16 07:39:38 51°13.968 2°55.548 335.7 5.6 334.6 9.1
2002-04-16 07:39:42 51°13.973 2°55.544 336 5.5 334.3 9.3
2002-04-16 07:39:48 51°13.981 2°55.538 336.5 5.5 334.4 9.6
2002-04-16 07:39:53 51°13.989 2°55.533 336.7 5.7 334.7 9.4
2002-04-16 07:39:58 51°13.996 2°55.527 336.3 5.9 334.6 9.6
2002-04-16 07:40:03 51°14.004 2°55.521 336 6.2 334.5 9.6
2002-04-16 07:40:08 51°14.013 2°55.515 336.2 6.4 334.3 9.2
2002-04-16 07:40:12 51°14.02 2°55.509 336.5 6.7 334.4 9.5
2002-04-16 07:40:18 51°14.03 2°55.501 336.3 6.8 334.1 9.5
2002-04-16 07:40:23 51°14.039 2°55.494 336.2 7.1 333.9 9.6
2002-04-16 07:40:28 51°14.048 2°55.487 335.5 7.3 333.8 9.6
2002-04-16 07:40:33 51°14.058 2°55.479 335 7.5 333.2 9.6
2002-04-16 07:40:38 51°14.068 2°55.471 335.5 7.7 332.7 9.6
2002-04-16 07:40:42 51°14.076 2°55.465 336 7.9 333.2 9.5
2002-04-16 07:40:48 51°14.088 2°55.455 335.2 8.1 333.1 9.5
2002-04-16 07:40:53 51°14.098 2°55.446 334.3 8.3 332.4 9.2
2002-04-16 07:40:58 51°14.109 2°55.436 333.8 8.5 331.8 8.6
2002-04-16 07:41:03 51°14.12 2°55.427 334.2 8.8 331.3 -999
2002-04-16 07:41:08 51°14.131 2°55.418 334.8 8.9 331.7 7.1
2002-04-16 07:41:13 51°14.142 2°55.407 333.2 9.1 331.3 7.3
2002-04-16 07:41:18 51°14.153 2°55.397 331.7 9.2 329.7 -999
2002-04-16 07:41:23 51°14.164 2°55.385 330.7 9.3 328.3 5.4
2002-04-16 07:41:29 51°14.177 2°55.371 329.2 9.5 327.1 -999
2002-04-16 07:41:33 51°14.186 2°55.361 327.2 9.6 325.2 -999
2002-04-16 07:41:39 51°14.199 2°55.346 325.8 9.7 324 -999
2002-04-16 07:41:44 51°14.21 2°55.332 325 9.8 322.8 -999
2002-04-16 07:41:49 51°14.221 2°55.318 322.7 9.9 321.3 -999
2002-04-16 07:41:54 51°14.231 2°55.303 320.5 10 319.1 -999
2002-04-16 07:41:59 51°14.241 2°55.288 319.8 10.1 317.5 -999
2002-04-16 07:42:03 51°14.249 2°55.275 318.7 10.1 317 -999
2002-04-16 07:42:09 51°14.261 2°55.256 317 10.2 315.8 5.2
2002-04-16 07:42:13 51°14.269 2°55.242 315.5 10.2 314.4 5
2002-04-16 07:42:19 51°14.28 2°55.222 314.2 10.3 312.5 -999
2002-04-16 07:42:24 51°14.289 2°55.204 313 10.4 311 -999
2002-04-16 07:42:29 51°14.299 2°55.186 312 10.4 309.6 -999
2002-04-16 07:42:33 51°14.306 2°55.172 311 10.4 308.7 5.3
2002-04-16 07:42:38 51°14.315 2°55.153 309.5 10.5 307.3 -999
2002-04-16 07:42:43 51°14.323 2°55.134 307 10.6 306.1 -999
2002-04-16 07:42:49 51°14.333 2°55.109 304.7 10.6 303.1 -999
2002-04-16 07:42:53 51°14.339 2°55.093 303.2 10.7 301.7 -999
2002-04-16 07:42:59 51°14.348 2°55.068 302.7 10.7 300.1 -999
2002-04-16 07:43:04 51°14.355 2°55.047 301.5 10.7 299.6 -999
2002-04-16 07:43:09 51°14.361 2°55.026 298.5 10.7 297.3 -999
2002-04-16 07:43:13 51°14.365 2°55.008 293.8 10.6 293.9 8.5
2002-04-16 07:43:18 51°14.368 2°54.986 289.2 10.6 289.9 8.2
2002-04-16 07:43:23 51°14.371 2°54.962 286 10.7 283.5 8
2002-04-16 07:43:28 51°14.373 2°54.939 284 10.8 279.8 7.8
2002-04-16 07:43:34 51°14.375 2°54.91 282.2 10.9 277.4 -999
2002-04-16 07:43:39 51°14.376 2°54.886 280.2 10.9 275.5 -999
2002-04-16 07:43:43 51°14.377 2°54.866 278.5 11 274.2 -999
2002-04-16 07:43:48 51°14.378 2°54.842 277.2 11.1 272.7 -999
2002-04-16 07:43:53 51°14.378 2°54.817 277 11.1 272.5 -999
2002-04-16 07:43:58 51°14.378 2°54.792 276.5 11.3 271.3 8.6
2002-04-16 07:44:03 51°14.379 2°54.766 275.3 11.4 270.7 8.6
2002-04-16 07:44:08 51°14.378 2°54.74 274.5 11.6 269.4 8.5
2002-04-16 07:44:13 51°14.377 2°54.714 273.3 11.7 268.5 8.5
2002-04-16 07:44:18 51°14.376 2°54.688 272.3 11.9 267.5 8.3
2002-04-16 07:44:22 51°14.376 2°54.666 271.8 12 266.8 8.3
2002-04-16 07:44:28 51°14.375 2°54.634 271.5 12.2 266.2 8.4
2002-04-16 07:44:33 51°14.373 2°54.607 272 12.3 266.4 8.4
2002-04-16 07:44:38 51°14.373 2°54.58 273.5 12.3 266.9 8.3
2002-04-16 07:44:43 51°14.372 2°54.552 272.5 12.3 266.9 8.4
2002-04-16 07:44:48 51°14.37 2°54.525 271.5 12.4 266.6 8.3
2002-04-16 07:44:53 51°14.369 2°54.497 270.8 12.5 264.8 8.3
2002-04-16 07:44:58 51°14.366 2°54.47 268.8 12.6 263.8 8.3
2002-04-16 07:45:03 51°14.363 2°54.442 266.8 12.6 262.1 8
2002-04-16 07:45:07 51°14.361 2°54.42 264 12.7 260.3 7.9
2002-04-16 07:45:13 51°14.355 2°54.387 261.5 12.8 257.6 8.1
2002-04-16 07:45:18 51°14.349 2°54.36 258.3 12.9 255 7.9
2002-04-16 07:45:23 51°14.343 2°54.333 254.5 13 251.4 8
2002-04-16 07:45:28 51°14.336 2°54.306 251.3 13 248.6 8
2002-04-16 07:45:33 51°14.327 2°54.28 247.8 13.2 245.4 7.7
2002-04-16 07:45:38 51°14.319 2°54.254 246.2 13.3 243.2 8
2002-04-16 07:45:43 51°14.31 2°54.228 244.2 13.3 241.7 7.9
2002-04-16 07:45:48 51°14.301 2°54.203 242.8 13.4 240.4 8.1
2002-04-16 07:45:53 51°14.291 2°54.177 243 13.4 240.5 8
2002-04-16 07:45:58 51°14.282 2°54.15 244.5 13.5 240.3 7.9
2002-04-16 07:46:03 51°14.274 2°54.123 246 13.6 242.4 7.9
2002-04-16 07:46:08 51°14.265 2°54.096 245.7 13.7 242.8 7.8
2002-04-16 07:46:13 51°14.256 2°54.069 246.3 13.8 242.5 7.8
2002-04-16 07:46:18 51°14.247 2°54.042 245.5 13.8 243.2 7.7
2002-04-16 07:46:23 51°14.238 2°54.015 245.7 13.8 241.9 7.7
2002-04-16 07:46:28 51°14.229 2°53.988 245.2 13.8 242.5 7.5
2002-04-16 07:46:33 51°14.221 2°53.961 245.3 13.9 241.9 7.4
2002-04-16 07:46:38 51°14.211 2°53.934 245.3 14 242 7.8
2002-04-16 07:46:42 51°14.204 2°53.912 245.2 14.1 242.1 7.6
2002-04-16 07:46:48 51°14.194 2°53.878 246.3 14.1 242.9 7.7
2002-04-16 07:46:53 51°14.185 2°53.851 244.8 14.1 242.5 7.7
2002-04-16 07:46:58 51°14.175 2°53.824 245.2 14 242.7 7.4
2002-04-16 07:47:03 51°14.167 2°53.796 246 14.1 242.9 7.7
2002-04-16 07:47:07 51°14.159 2°53.774 245.8 14.1 242.5 7.8
2002-04-16 07:47:13 51°14.148 2°53.74 245.2 14.1 242.8 7.9
2002-04-16 07:47:17 51°14.141 2°53.718 245 14.2 242.7 7.8
2002-04-16 07:47:23 51°14.131 2°53.684 246 14.2 242.6 7.8
2002-04-16 07:47:28 51°14.121 2°53.657 245 14.2 242.4 7.9
2002-04-16 07:47:33 51°14.112 2°53.628 244.8 14.3 242.7 7.8
2002-04-16 07:47:38 51°14.103 2°53.601 245.3 14.3 241.9 7.8
2002-04-16 07:47:43 51°14.093 2°53.573 244.2 14.3 241.7 7.6
2002-04-16 07:47:48 51°14.084 2°53.545 244.2 14.3 241.7 7.8
2002-04-16 07:47:53 51°14.075 2°53.517 244.8 14.3 241.9 7.9
2002-04-16 07:47:58 51°14.065 2°53.489 244.8 14.3 241.8 7.8
2002-04-16 07:48:03 51°14.056 2°53.462 244.8 14.3 242 8
2002-04-16 07:48:08 51°14.047 2°53.432 245.5 14.4 242.1 8
2002-04-16 07:48:13 51°14.037 2°53.405 245.8 14.5 242.5 8
2002-04-16 07:48:18 51°14.028 2°53.376 245.5 14.5 242.2 8.1
2002-04-16 07:48:23 51°14.019 2°53.348 244.7 14.5 241.6 7.7
2002-04-16 07:48:28 51°14.009 2°53.32 244.5 14.5 241.7 8.1
2002-04-16 07:48:33 51°13.999 2°53.292 243.7 14.5 240.6 8.2
2002-04-16 07:48:38 51°13.989 2°53.264 244 14.5 241.2 8.2
2002-04-16 07:48:42 51°13.981 2°53.242 244 14.5 240 8.1
2002-04-16 07:48:48 51°13.969 2°53.208 243.8 14.6 240.8 8.3
2002-04-16 07:48:53 51°13.959 2°53.18 243.5 14.7 240.6 8.3
2002-04-16 07:48:58 51°13.949 2°53.152 243.5 14.7 240.8 8.3
2002-04-16 07:49:03 51°13.94 2°53.123 244 14.6 241.2 8.2
2002-04-16 07:49:08 51°13.93 2°53.095 244.5 14.6 240.6 8.4
2002-04-16 07:49:13 51°13.92 2°53.067 243.7 14.6 242 8.5
2002-04-16 07:49:18 51°13.91 2°53.038 243.7 14.7 240.8 8.5
2002-04-16 07:49:23 51°13.9 2°53.01 244.8 14.8 241.6 8.4
2002-04-16 07:49:28 51°13.89 2°52.982 243.8 14.7 240.9 8.5
2002-04-16 07:49:33 51°13.88 2°52.953 243.2 14.7 239.9 8.5
2002-04-16 07:49:38 51°13.871 2°52.924 244.2 14.7 239.9 8.6
2002-04-16 07:49:43 51°13.86 2°52.896 243.5 14.8 240.3 8.6
2002-04-16 07:49:48 51°13.851 2°52.868 243.5 14.8 240.9 8.5
2002-04-16 07:49:53 51°13.841 2°52.839 244.2 14.7 241 8.7
2002-04-16 07:49:58 51°13.831 2°52.811 243.7 14.7 241.1 8.7
2002-04-16 07:50:03 51°13.821 2°52.782 244.2 14.8 241.7 8.7
2002-04-16 07:50:08 51°13.811 2°52.753 244.8 14.8 241 8.8
2002-04-16 07:50:13 51°13.801 2°52.725 243.5 14.8 240.9 8.5
2002-04-16 07:50:18 51°13.792 2°52.696 244 14.8 240.4 8.7
2002-04-16 07:50:23 51°13.781 2°52.668 244.5 14.8 240.9 8.7
2002-04-16 07:50:28 51°13.771 2°52.639 243.2 14.9 240.2 8.8
2002-04-16 07:50:33 51°13.761 2°52.611 243 14.8 240.6 8.8
2002-04-16 07:50:38 51°13.751 2°52.582 243.3 14.8 239.9 8.8
2002-04-16 07:50:43 51°13.741 2°52.553 244 14.8 241.3 8.8
2002-04-16 07:50:47 51°13.733 2°52.531 243.5 14.8 240.3 8.8
2002-04-16 07:50:53 51°13.722 2°52.496 244.7 14.8 241.8 8.8
2002-04-16 07:50:58 51°13.711 2°52.467 244.2 14.8 241.5 8.9
2002-04-16 07:51:03 51°13.702 2°52.439 243.8 14.8 241.6 9
2002-04-16 07:51:08 51°13.692 2°52.41 244 14.8 240.9 8.9
2002-04-16 07:51:13 51°13.682 2°52.38 245.2 14.9 241.8 9
2002-04-16 07:51:18 51°13.672 2°52.352 244.3 14.9 241.8 9
2002-04-16 07:51:22 51°13.664 2°52.329 243.5 14.8 240.8 9
2002-04-16 07:51:28 51°13.653 2°52.295 244.7 14.8 241.3 9
2002-04-16 07:51:33 51°13.642 2°52.266 244 14.8 241 9.1
2002-04-16 07:51:38 51°13.633 2°52.237 244.7 14.9 242.2 9.1
2002-04-16 07:51:43 51°13.623 2°52.208 244.2 14.8 240.8 9
2002-04-16 07:51:48 51°13.613 2°52.18 243.3 14.8 241.2 9.1
2002-04-16 07:51:53 51°13.603 2°52.151 243.8 14.9 240.8 9.1
2002-04-16 07:51:58 51°13.593 2°52.122 243.8 15 240.8 8.6
2002-04-16 07:52:03 51°13.583 2°52.094 243.5 14.9 240.7 9.1
2002-04-16 07:52:07 51°13.575 2°52.071 244 14.8 240.7 9.1
2002-04-16 07:52:13 51°13.563 2°52.036 243.8 14.8 241.3 9
2002-04-16 07:52:18 51°13.553 2°52.007 243.8 14.9 241.3 9
2002-04-16 07:52:23 51°13.543 2°51.978 243.5 14.9 241.1 9.1
2002-04-16 07:52:27 51°13.535 2°51.955 244 14.9 241.9 9
2002-04-16 07:52:33 51°13.523 2°51.921 244.2 14.8 240.8 9.1
2002-04-16 07:52:38 51°13.514 2°51.892 244 14.8 242.5 9.1
2002-04-16 07:52:43 51°13.504 2°51.863 243.5 14.9 240.7 9.1
2002-04-16 07:52:48 51°13.494 2°51.834 244 14.9 241.8 9.2
2002-04-16 07:52:53 51°13.485 2°51.805 244 14.9 241.9 9.1
2002-04-16 07:52:58 51°13.475 2°51.776 244.8 14.9 241.5 9.1
2002-04-16 07:53:03 51°13.465 2°51.747 244.7 14.8 243 9.1
2002-04-16 07:53:08 51°13.455 2°51.718 243.7 14.8 241.7 9.2
2002-04-16 07:53:13 51°13.446 2°51.689 244.5 14.9 242.6 9.2
2002-04-16 07:53:18 51°13.436 2°51.66 244.5 14.9 241.7 9.1
2002-04-16 07:53:23 51°13.427 2°51.631 244.7 14.9 242 9.1
2002-04-16 07:53:28 51°13.417 2°51.602 244.3 14.9 242.1 9.1
2002-04-16 07:53:33 51°13.407 2°51.573 243.7 14.9 241.1 9.1
2002-04-16 07:53:38 51°13.397 2°51.543 244 15 241.8 9.1
2002-04-16 07:53:42 51°13.389 2°51.52 244.2 15 241.7 9.1
2002-04-16 07:53:48 51°13.377 2°51.486 243.2 14.9 241.7 9.2
2002-04-16 07:53:53 51°13.368 2°51.456 244.5 15 241.8 9.1
2002-04-16 07:53:58 51°13.358 2°51.427 244.7 15 241.7 9.1
2002-04-16 07:54:03 51°13.347 2°51.399 243 15 241 9.2
2002-04-16 07:54:08 51°13.338 2°51.369 244.3 15.1 241.8 9.2
2002-04-16 07:54:13 51°13.327 2°51.34 243.8 15 241 9.2
2002-04-16 07:54:17 51°13.32 2°51.317 244 15 241.3 9.3
2002-04-16 07:54:23 51°13.308 2°51.282 244 15 241.3 9.3
2002-04-16 07:54:28 51°13.298 2°51.253 243.5 15 241.3 9.3
2002-04-16 07:54:33 51°13.288 2°51.224 243.7 15 241.4 9.3
2002-04-16 07:54:38 51°13.279 2°51.195 243.8 14.9 241.9 9.2
2002-04-16 07:54:43 51°13.269 2°51.165 244.5 15 242.1 9.3
2002-04-16 07:54:48 51°13.259 2°51.136 244.5 15 242.9 9.3
2002-04-16 07:54:52 51°13.251 2°51.113 244.8 15 241.8 9.3
2002-04-16 07:54:58 51°13.239 2°51.078 244.7 15 242 9.3
2002-04-16 07:55:03 51°13.23 2°51.048 243.5 15 241.4 9.2
2002-04-16 07:55:07 51°13.222 2°51.025 244 14.9 241.5 9.3
2002-04-16 07:55:13 51°13.21 2°50.99 243.7 15 240.6 9.4
2002-04-16 07:55:18 51°13.199 2°50.961 243.2 15 241 9.3
2002-04-16 07:55:22 51°13.191 2°50.938 243 15.1 240.8 9.4
2002-04-16 07:55:28 51°13.179 2°50.903 244 15.1 241.1 9.4
2002-04-16 07:55:33 51°13.169 2°50.874 243.7 15 241.1 9.3
2002-04-16 07:55:38 51°13.159 2°50.845 244.3 15 241.5 9.3
2002-04-16 07:55:43 51°13.149 2°50.816 243.8 14.9 241.9 9.4
2002-04-16 07:55:48 51°13.14 2°50.786 244.2 15 241.6 9.5
2002-04-16 07:55:53 51°13.13 2°50.757 244.2 15 241.4 9.5
2002-04-16 07:55:58 51°13.12 2°50.728 243.7 15 242 9.5
2002-04-16 07:56:03 51°13.11 2°50.699 243.8 15 241.8 9.5
2002-04-16 07:56:08 51°13.1 2°50.67 244.5 15 241.6 9.4
2002-04-16 07:56:13 51°13.091 2°50.641 244 15 241.6 9.6
2002-04-16 07:56:18 51°13.08 2°50.612 243.8 14.9 241.6 9.6
2002-04-16 07:56:23 51°13.07 2°50.583 243.5 14.9 241.3 9.6
2002-04-16 07:56:28 51°13.061 2°50.554 243.7 14.9 241 9.6
2002-04-16 07:56:33 51°13.051 2°50.525 244.2 15 241.8 9.6
2002-04-16 07:56:38 51°13.041 2°50.496 243.3 15 241 9.6
2002-04-16 07:56:43 51°13.031 2°50.467 244.8 14.9 242.3 9.6
2002-04-16 07:56:47 51°13.023 2°50.444 244.3 14.8 241.5 9.6
2002-04-16 07:56:53 51°13.012 2°50.409 244.3 14.9 242.2 9.6
2002-04-16 07:56:58 51°13.002 2°50.38 244.2 14.9 242.2 9.6
2002-04-16 07:57:03 51°12.992 2°50.351 244 14.8 241.3 9.6
2002-04-16 07:57:07 51°12.985 2°50.328 244.5 14.9 241.7 9.7
2002-04-16 07:57:13 51°12.973 2°50.294 243.8 14.9 241.6 9.6
2002-04-16 07:57:18 51°12.963 2°50.264 243.8 14.9 241.2 9.7
2002-04-16 07:57:23 51°12.953 2°50.236 244.5 14.9 241.8 9.7
2002-04-16 07:57:28 51°12.944 2°50.207 244.7 14.9 242 9.7
2002-04-16 07:57:33 51°12.934 2°50.178 244.3 14.8 241.6 9.8
2002-04-16 07:57:38 51°12.924 2°50.149 244.2 14.8 242 9.8
2002-04-16 07:57:43 51°12.914 2°50.12 243.7 14.8 241.1 9.7
2002-04-16 07:57:48 51°12.905 2°50.091 243.8 14.8 242 9.8
2002-04-16 07:57:53 51°12.895 2°50.062 243.8 14.7 241.5 9.7
2002-04-16 07:57:58 51°12.885 2°50.034 244.2 14.8 241.5 9.8
2002-04-16 07:58:03 51°12.876 2°50.005 243.5 14.8 241.9 9.8
2002-04-16 07:58:08 51°12.866 2°49.976 243.7 14.8 241.7 9.7
2002-04-16 07:58:12 51°12.858 2°49.953 243.5 14.8 241.7 9.8
2002-04-16 07:58:18 51°12.846 2°49.919 243.2 14.8 241.8 9.8
2002-04-16 07:58:23 51°12.837 2°49.89 243.7 14.8 241.6 9.9
2002-04-16 07:58:28 51°12.827 2°49.862 243.5 14.8 241.2 9.7
2002-04-16 07:58:33 51°12.817 2°49.832 244.2 14.9 241.7 10
2002-04-16 07:58:38 51°12.807 2°49.803 244 14.9 241.7 9.9
2002-04-16 07:58:43 51°12.798 2°49.774 244.2 15 241.7 9.9
2002-04-16 07:58:48 51°12.788 2°49.746 244.3 14.9 241.9 9.9
2002-04-16 07:58:53 51°12.777 2°49.717 243.3 14.8 241.2 9.9
2002-04-16 07:58:58 51°12.768 2°49.688 243.7 14.9 241.3 9.9
2002-04-16 07:59:03 51°12.758 2°49.659 243.8 14.9 241.6 9.8
2002-04-16 07:59:08 51°12.748 2°49.63 244.5 15 241.3 9.9
2002-04-16 07:59:13 51°12.739 2°49.6 245.7 15 243.1 10
2002-04-16 07:59:18 51°12.729 2°49.571 245.3 14.9 242.6 10
2002-04-16 07:59:23 51°12.721 2°49.541 247 15 244.1 10
2002-04-16 07:59:28 51°12.711 2°49.511 246.7 15 244.2 10
2002-04-16 07:59:33 51°12.702 2°49.481 246.5 15.1 243.4 9.8
2002-04-16 07:59:38 51°12.692 2°49.452 246.2 15.1 243.7 10
2002-04-16 07:59:42 51°12.686 2°49.428 245.5 15 243.8 10
2002-04-16 07:59:48 51°12.674 2°49.392 246.8 15 243.9 10
2002-04-16 07:59:53 51°12.665 2°49.363 246.3 15 243.7 10
2002-04-16 07:59:58 51°12.656 2°49.333 246.3 15 243.5 10.1
2002-04-16 08:00:02 51°12.649 2°49.309 246.5 15.1 244.1 10
2002-04-16 08:00:08 51°12.638 2°49.273 247.3 15.1 243.9 10.1
2002-04-16 08:00:13 51°12.628 2°49.244 246.7 15 244 10.2
2002-04-16 08:00:18 51°12.62 2°49.213 246.5 15 243.9 10.2
2002-04-16 08:00:23 51°12.611 2°49.184 247 15 244 10.1
2002-04-16 08:00:28 51°12.601 2°49.154 246.5 15 243.9 10.1
2002-04-16 08:00:33 51°12.592 2°49.124 246.2 14.9 244 10.3
2002-04-16 08:00:38 51°12.583 2°49.095 245.5 14.9 243.5 10.3
2002-04-16 08:00:43 51°12.574 2°49.065 246 15 243.8 10.3
2002-04-16 08:00:48 51°12.564 2°49.035 245.8 15 243.8 10.3
2002-04-16 08:00:53 51°12.555 2°49.006 246 15 243.5 10.3
2002-04-16 08:00:58 51°12.545 2°48.977 244.8 15 243 10.3
2002-04-16 08:01:03 51°12.537 2°48.946 245.7 15.1 243.5 10.3
2002-04-16 08:01:08 51°12.527 2°48.917 245.3 15.1 243.4 10.3
2002-04-16 08:01:12 51°12.519 2°48.893 245.2 15.1 243.2 10.3
2002-04-16 08:01:17 51°12.51 2°48.863 245.7 15 243.6 10.3
2002-04-16 08:01:23 51°12.499 2°48.828 245.7 15 243.2 10.4
2002-04-16 08:01:28 51°12.49 2°48.798 246.3 15 244 10.3
2002-04-16 08:01:32 51°12.482 2°48.774 246 15 243.1 10.4
2002-04-16 08:01:38 51°12.472 2°48.738 246.5 15.1 243.8 10.4
2002-04-16 08:01:43 51°12.462 2°48.709 246.3 15 243.6 10.5
2002-04-16 08:01:48 51°12.453 2°48.679 246 15 243.7 10.5
2002-04-16 08:01:52 51°12.445 2°48.656 246 15 243.3 10.5
2002-04-16 08:01:58 51°12.435 2°48.62 245.8 15 243.8 10.4
2002-04-16 08:02:03 51°12.425 2°48.59 246 15 243.6 10.5
2002-04-16 08:02:08 51°12.416 2°48.56 246.7 15.1 244.4 10.5
2002-04-16 08:02:13 51°12.407 2°48.531 245.3 15 243.8 10.4
2002-04-16 08:02:18 51°12.398 2°48.501 245.8 14.9 243.3 10.5
2002-04-16 08:02:23 51°12.387 2°48.472 244.8 15 242.6 10.5
2002-04-16 08:02:28 51°12.38 2°48.441 246.3 15.1 242.8 10.6
2002-04-16 08:02:33 51°12.369 2°48.413 245.5 14.9 243.1 10.5
2002-04-16 08:02:38 51°12.361 2°48.382 245.2 14.9 244 10.5
2002-04-16 08:02:42 51°12.353 2°48.359 245.8 15 243.6 10.6
2002-04-16 08:02:48 51°12.343 2°48.323 246.7 15 243.5 10.7
2002-04-16 08:02:53 51°12.332 2°48.294 245.5 15 243.3 10.6
2002-04-16 08:02:58 51°12.324 2°48.263 246.2 15 244.4 10.5
2002-04-16 08:03:03 51°12.315 2°48.233 246.7 15 244 10.6
2002-04-16 08:03:08 51°12.306 2°48.204 246 15 244.1 10.6
2002-04-16 08:03:13 51°12.297 2°48.175 246 14.9 244.1 10.7
2002-04-16 08:03:18 51°12.288 2°48.145 246 14.9 243.2 10.7
2002-04-16 08:03:22 51°12.28 2°48.121 246.5 15 243.8 10.7
2002-04-16 08:03:28 51°12.269 2°48.086 245.8 15 244.1 10.8
2002-04-16 08:03:33 51°12.261 2°48.056 246.2 15 244.2 10.8
2002-04-16 08:03:38 51°12.251 2°48.027 246.3 14.9 243.6 10.8
2002-04-16 08:03:42 51°12.244 2°48.003 246 14.9 243.8 10.8
2002-04-16 08:03:48 51°12.232 2°47.968 245 14.9 243.4 10.8
2002-04-16 08:03:53 51°12.223 2°47.938 245.3 14.9 243.1 10.8
2002-04-16 08:03:58 51°12.214 2°47.909 245.5 14.9 243.2 10.8
2002-04-16 08:04:02 51°12.206 2°47.886 245.7 15 243.1 10.8
2002-04-16 08:04:08 51°12.195 2°47.85 246 15 243.5 10.9
2002-04-16 08:04:13 51°12.186 2°47.82 246.5 15 244.5 10.8
2002-04-16 08:04:18 51°12.177 2°47.79 246.2 14.9 244.4 10.7
2002-04-16 08:04:23 51°12.168 2°47.761 245.8 15 243.1 10.7
2002-04-16 08:04:28 51°12.159 2°47.731 245.7 15 243.5 10.8
2002-04-16 08:04:33 51°12.15 2°47.701 246.2 14.9 244 10.8
2002-04-16 08:04:38 51°12.141 2°47.672 246.7 15 243.8 10.8
2002-04-16 08:04:42 51°12.133 2°47.648 246.2 15 244.3 10.9
2002-04-16 08:04:48 51°12.122 2°47.613 246.2 15 243.8 10.9
2002-04-16 08:04:53 51°12.113 2°47.583 246.2 14.9 244.3 10.9
2002-04-16 08:04:58 51°12.104 2°47.553 246.8 15 244.1 10.9
2002-04-16 08:05:03 51°12.095 2°47.523 246.7 15 245 10.9
2002-04-16 08:05:08 51°12.086 2°47.494 245.8 15 243.5 10.9
2002-04-16 08:05:12 51°12.079 2°47.47 246.3 15 244.1 10.8
2002-04-16 08:05:18 51°12.068 2°47.435 245.5 15 243.4 10.9
2002-04-16 08:05:23 51°12.059 2°47.405 246 15 243.5 11
2002-04-16 08:05:27 51°12.051 2°47.381 245.5 15 243.8 11
2002-04-16 08:05:33 51°12.041 2°47.345 246.5 15 243.8 11
2002-04-16 08:05:38 51°12.031 2°47.315 246.2 15 243.8 11
2002-04-16 08:05:43 51°12.022 2°47.285 245.3 15 243.6 10.9
2002-04-16 08:05:48 51°12.013 2°47.256 245.8 15.1 243.9 11.1
2002-04-16 08:05:53 51°12.003 2°47.226 245.8 15 244 11.1
2002-04-16 08:05:58 51°11.994 2°47.195 246.5 15.1 243.8 10.9
2002-04-16 08:06:03 51°11.985 2°47.165 246.7 15.1 244.8 11
2002-04-16 08:06:08 51°11.976 2°47.135 245.8 15.1 244.3 11
2002-04-16 08:06:13 51°11.967 2°47.105 246.7 15.1 244.7 11
2002-04-16 08:06:18 51°11.958 2°47.075 246.3 15.1 244 11
2002-04-16 08:06:23 51°11.949 2°47.045 246 15.1 244.1 11
2002-04-16 08:06:28 51°11.94 2°47.015 245.8 15.1 244.4 10.9
2002-04-16 08:06:33 51°11.931 2°46.985 246.2 15 244.1 11.1
2002-04-16 08:06:38 51°11.921 2°46.956 245.2 15 243.9 11.1
2002-04-16 08:06:43 51°11.913 2°46.925 245.8 15 244.1 11.1
2002-04-16 08:06:48 51°11.903 2°46.896 245.7 15 244.2 11
2002-04-16 08:06:53 51°11.894 2°46.866 246 15 244 11
2002-04-16 08:06:58 51°11.885 2°46.836 246 15 244 10.8
2002-04-16 08:07:03 51°11.876 2°46.806 246 15.1 243.8 11
2002-04-16 08:07:08 51°11.866 2°46.777 245.5 15.1 243.8 10.9
2002-04-16 08:07:13 51°11.857 2°46.747 245.2 15 243.7 10.9
2002-04-16 08:07:18 51°11.848 2°46.717 245.7 15.1 243.7 10.9
2002-04-16 08:07:23 51°11.84 2°46.686 246.5 15.1 244.8 11
2002-04-16 08:07:28 51°11.83 2°46.657 246 15.1 243.4 10.9
2002-04-16 08:07:33 51°11.821 2°46.627 245.8 15 244.6 11.1
2002-04-16 08:07:38 51°11.812 2°46.598 245.2 15 243.2 11
2002-04-16 08:07:43 51°11.803 2°46.567 245.5 15 244.7 11.1
2002-04-16 08:07:48 51°11.793 2°46.538 245.8 15 244.4 11.1
2002-04-16 08:07:53 51°11.784 2°46.508 245.8 15 243.9 11.1
2002-04-16 08:07:58 51°11.775 2°46.478 246.2 15 244.2 11.1
2002-04-16 08:08:03 51°11.766 2°46.448 246.2 15.1 244.1 11.1
2002-04-16 08:08:08 51°11.757 2°46.418 246.5 15.1 244.2 11.1
2002-04-16 08:08:13 51°11.747 2°46.389 245.2 15 243.9 11.1
2002-04-16 08:08:18 51°11.739 2°46.358 246 15.1 244.1 11
2002-04-16 08:08:23 51°11.729 2°46.329 245.8 15.1 243.8 11
2002-04-16 08:08:28 51°11.721 2°46.299 246.2 15 244.5 11.1
2002-04-16 08:08:33 51°11.712 2°46.269 246.3 15 244.3 10.9
2002-04-16 08:08:38 51°11.702 2°46.239 246.8 15.1 244.7 11
2002-04-16 08:08:42 51°11.695 2°46.214 246 15.1 244.8 10.9
2002-04-16 08:08:48 51°11.685 2°46.178 247.2 15.1 244.4 10.9
2002-04-16 08:08:53 51°11.675 2°46.149 246.2 14.9 244.4 10.9
2002-04-16 08:08:58 51°11.667 2°46.119 246 15 244.5 10.9
2002-04-16 08:09:02 51°11.659 2°46.095 246.7 15 244.3 10.9
2002-04-16 08:09:08 51°11.648 2°46.06 245 15 243.4 10.8
2002-04-16 08:09:13 51°11.639 2°46.029 246.2 15.1 244.1 10.8
2002-04-16 08:09:18 51°11.63 2°45.999 246.7 15.1 244.5 10.8
2002-04-16 08:09:23 51°11.621 2°45.97 245.8 15 244.1 10.8
2002-04-16 08:09:28 51°11.612 2°45.94 246 15 244.5 10.8
2002-04-16 08:09:33 51°11.603 2°45.91 246.2 15 244.6 10.7
2002-04-16 08:09:38 51°11.594 2°45.88 246.2 15 244 10.8
2002-04-16 08:09:43 51°11.585 2°45.85 245.7 15 244.6 10.8
2002-04-16 08:09:48 51°11.576 2°45.82 246.2 15 243.7 10.7
2002-04-16 08:09:53 51°11.566 2°45.791 246.3 15.1 244.3 10.8
2002-04-16 08:09:58 51°11.558 2°45.761 247 15 244.7 10.7
2002-04-16 08:10:03 51°11.549 2°45.731 246.3 14.9 244.6 10.7
2002-04-16 08:10:08 51°11.54 2°45.701 246.2 14.9 244 10.7
2002-04-16 08:10:13 51°11.53 2°45.672 245 15 243.7 10.7
2002-04-16 08:10:18 51°11.521 2°45.642 244.5 15 243.3 10.7
2002-04-16 08:10:23 51°11.511 2°45.613 245.3 14.9 243.2 10.7
2002-04-16 08:10:27 51°11.503 2°45.589 244.5 14.9 243 10.6
2002-04-16 08:10:32 51°11.495 2°45.559 246 15.1 243.9 10.6
2002-04-16 08:10:38 51°11.484 2°45.523 246.5 15.1 243.9 10.6
2002-04-16 08:10:42 51°11.477 2°45.5 245.5 15 244.4 10.6
2002-04-16 08:10:48 51°11.466 2°45.464 246.5 15 244.3 10.6
2002-04-16 08:10:53 51°11.456 2°45.434 246.3 15.1 244.5 10.6
2002-04-16 08:10:58 51°11.448 2°45.403 246.5 15.2 244.1 10.6
2002-04-16 08:11:03 51°11.439 2°45.374 246.7 15 244.9 10.5
2002-04-16 08:11:08 51°11.43 2°45.344 246.8 15 244.5 10.5
2002-04-16 08:11:13 51°11.421 2°45.313 247 15 245 10.5
2002-04-16 08:11:18 51°11.412 2°45.283 246.3 15.2 244.7 10.3
2002-04-16 08:11:23 51°11.404 2°45.253 246.8 15.2 244.8 10.5
2002-04-16 08:11:28 51°11.394 2°45.224 246.3 15 244.3 10.4
2002-04-16 08:11:32 51°11.387 2°45.199 246.7 15.1 244.6 10.4
2002-04-16 08:11:38 51°11.376 2°45.163 246.2 15.1 244.2 10.4
2002-04-16 08:11:43 51°11.367 2°45.133 245.7 15.1 244.3 10.4
2002-04-16 08:11:48 51°11.358 2°45.104 245.8 15 244.2 10.4
2002-04-16 08:11:53 51°11.349 2°45.074 246.2 15.1 244.4 10.3
2002-04-16 08:11:58 51°11.34 2°45.044 245.8 15.1 244 10.4
2002-04-16 08:12:03 51°11.331 2°45.013 246.3 15.1 244.1 10.4
2002-04-16 08:12:08 51°11.322 2°44.983 246.5 15.1 244.7 10.3
2002-04-16 08:12:13 51°11.313 2°44.953 246.5 15.1 244.4 10.4
2002-04-16 08:12:18 51°11.304 2°44.924 246 15.1 244.8 10.3
2002-04-16 08:12:22 51°11.297 2°44.899 246.7 15.1 244.6 10.3
2002-04-16 08:12:28 51°11.286 2°44.863 246 15.1 244.2 10.3
2002-04-16 08:12:33 51°11.277 2°44.833 246.2 15.1 244.7 10.3
2002-04-16 08:12:38 51°11.268 2°44.804 245.3 15 243.7 10.2
2002-04-16 08:12:43 51°11.259 2°44.773 246.3 15.1 244.1 10.1
2002-04-16 08:12:48 51°11.249 2°44.744 246.5 15.1 244.3 10.2
2002-04-16 08:12:53 51°11.24 2°44.714 245.2 15.1 244 10.1
2002-04-16 08:12:58 51°11.231 2°44.684 245.5 15.1 243.2 10
2002-04-16 08:13:03 51°11.222 2°44.654 245.5 15.1 243.8 10.1
2002-04-16 08:13:08 51°11.213 2°44.624 245 15.1 244.3 10.2
2002-04-16 08:13:13 51°11.204 2°44.594 246.5 15.1 244 10.1
2002-04-16 08:13:18 51°11.194 2°44.564 246.5 15.1 244.4 10.1
2002-04-16 08:13:22 51°11.187 2°44.54 245.5 15.2 243.8 9.9
2002-04-16 08:13:28 51°11.177 2°44.503 246.3 15.1 244.4 10.1
2002-04-16 08:13:33 51°11.167 2°44.474 246.3 15.1 244.6 10
2002-04-16 08:13:38 51°11.158 2°44.443 246.3 15.1 244.4 10
2002-04-16 08:13:43 51°11.15 2°44.413 246.8 15.1 244.8 9.9
2002-04-16 08:13:48 51°11.141 2°44.383 246.5 15.1 244.7 9.9
2002-04-16 08:13:53 51°11.132 2°44.353 246.7 15.1 244.8 9.9
2002-04-16 08:13:58 51°11.122 2°44.323 246.2 15.1 244.9 9.8
2002-04-16 08:14:03 51°11.114 2°44.293 246.7 15.1 244.9 9.8
2002-04-16 08:14:08 51°11.105 2°44.263 246.5 15.1 244.6 9.9
2002-04-16 08:14:13 51°11.096 2°44.233 246.3 15.1 244.7 9.9
2002-04-16 08:14:18 51°11.087 2°44.203 245.8 15 244.3 9.8
2002-04-16 08:14:23 51°11.078 2°44.173 245.7 15 244.4 9.9
2002-04-16 08:14:28 51°11.07 2°44.143 245.7 14.9 244.2 9.9
2002-04-16 08:14:33 51°11.06 2°44.114 245.3 15 243.8 9.8
2002-04-16 08:14:38 51°11.051 2°44.084 246 15 244.4 9.8
2002-04-16 08:14:42 51°11.043 2°44.06 245.8 15 244.2 9.8
2002-04-16 08:14:48 51°11.033 2°44.024 246 15.1 244.2 9.6
2002-04-16 08:14:53 51°11.023 2°43.994 246.2 15.1 244.7 9.8
2002-04-16 08:14:58 51°11.015 2°43.963 246.7 15.1 243.7 9.8
2002-04-16 08:15:03 51°11.005 2°43.934 245.8 15 244.4 9.7
2002-04-16 08:15:07 51°10.998 2°43.91 245.8 15 243.6 9.7
2002-04-16 08:15:13 51°10.987 2°43.874 246.5 15.1 244.7 9.7
2002-04-16 08:15:18 51°10.979 2°43.843 246.5 15.1 244.9 9.7
2002-04-16 08:15:23 51°10.969 2°43.813 246 15.1 244.2 9.7
2002-04-16 08:15:28 51°10.961 2°43.783 246 15.1 244.5 9.6
2002-04-16 08:15:33 51°10.951 2°43.754 245.8 15 244.2 9.7
2002-04-16 08:15:38 51°10.943 2°43.723 246.5 15 244.7 9.6
2002-04-16 08:15:43 51°10.934 2°43.693 246.3 15.1 244.7 9.6
2002-04-16 08:15:48 51°10.925 2°43.663 246.5 15.1 245.2 9.6
2002-04-16 08:15:53 51°10.916 2°43.633 246.3 15 244.9 9.5
2002-04-16 08:15:58 51°10.907 2°43.604 245.5 15 244.2 9.5
2002-04-16 08:16:03 51°10.899 2°43.573 246.3 15 245.2 9.5
2002-04-16 08:16:08 51°10.889 2°43.544 245.7 14.9 243.9 9.5
2002-04-16 08:16:13 51°10.88 2°43.514 246 15 244.6 9.4
2002-04-16 08:16:18 51°10.871 2°43.484 247 15 244.6 9.4
2002-04-16 08:16:23 51°10.862 2°43.455 245.8 14.9 244 9.3
2002-04-16 08:16:28 51°10.853 2°43.424 245.7 14.9 244.5 9.4
2002-04-16 08:16:33 51°10.844 2°43.395 246.3 15 243.9 9.3
2002-04-16 08:16:38 51°10.835 2°43.365 246.2 15 245.1 9.4
2002-04-16 08:16:43 51°10.826 2°43.335 245.8 14.9 243.8 8.8
2002-04-16 08:16:48 51°10.817 2°43.306 245.8 14.9 244 9.4
2002-04-16 08:16:53 51°10.808 2°43.277 245.3 14.9 244 9.3
2002-04-16 08:16:58 51°10.799 2°43.247 245.3 14.9 243.5 9.3
2002-04-16 08:17:03 51°10.791 2°43.217 246 14.9 244.5 9.2
2002-04-16 08:17:08 51°10.782 2°43.188 246.5 14.9 244.2 9.2
2002-04-16 08:17:13 51°10.772 2°43.159 245.8 14.8 244.3 9.1
2002-04-16 08:17:18 51°10.764 2°43.128 246.5 14.8 244.5 9.2
2002-04-16 08:17:23 51°10.755 2°43.1 246.8 14.8 244.9 9.2
2002-04-16 08:17:28 51°10.747 2°43.07 246.3 14.8 245.2 9.1
2002-04-16 08:17:33 51°10.738 2°43.04 247.2 14.9 245.1 9.2
2002-04-16 08:17:38 51°10.73 2°43.011 247 14.9 245 9.2
2002-04-16 08:17:43 51°10.72 2°42.982 246 14.7 244.2 9.2
2002-04-16 08:17:48 51°10.712 2°42.952 246.3 14.7 245.1 9.1
2002-04-16 08:17:53 51°10.704 2°42.923 247 14.8 244.7 9.1
2002-04-16 08:17:58 51°10.695 2°42.893 246.2 14.8 245.4 9
2002-04-16 08:18:03 51°10.686 2°42.864 246.3 14.7 244.8 9.1
2002-04-16 08:18:08 51°10.677 2°42.834 246.7 14.7 245.2 8.9
2002-04-16 08:18:13 51°10.668 2°42.806 245.7 14.7 243.9 9
2002-04-16 08:18:18 51°10.659 2°42.776 245.8 14.6 244.2 8.8
2002-04-16 08:18:23 51°10.65 2°42.747 245.5 14.6 243.7 8.9
2002-04-16 08:18:28 51°10.641 2°42.718 245.8 14.7 243.3 8.9
2002-04-16 08:18:33 51°10.632 2°42.689 245.7 14.7 243.9 8.7
2002-04-16 08:18:38 51°10.623 2°42.66 246 14.7 243.4 8.8
2002-04-16 08:18:43 51°10.615 2°42.631 246.8 14.6 244.8 8.9
2002-04-16 08:18:48 51°10.606 2°42.602 246 14.6 245 8.7
2002-04-16 08:18:53 51°10.597 2°42.573 245.8 14.6 244.2 8.7
2002-04-16 08:18:58 51°10.588 2°42.544 245.7 14.6 243.8 8.7
2002-04-16 08:19:03 51°10.58 2°42.515 246.2 14.6 244.4 8.7
2002-04-16 08:19:08 51°10.571 2°42.486 245.7 14.6 244.4 8.7
2002-04-16 08:19:12 51°10.564 2°42.462 246.3 14.6 244.7 8.7
2002-04-16 08:19:18 51°10.554 2°42.428 246.8 14.6 244.8 8.6
2002-04-16 08:19:23 51°10.545 2°42.399 246.8 14.5 245.3 8.7
2002-04-16 08:19:28 51°10.536 2°42.37 246 14.5 244.7 8.6
2002-04-16 08:19:33 51°10.527 2°42.341 246 14.5 244.1 8.6
2002-04-16 08:19:38 51°10.519 2°42.311 246.2 14.6 244.7 8.5
2002-04-16 08:19:43 51°10.511 2°42.282 246.5 14.6 244.7 8.6
2002-04-16 08:19:48 51°10.502 2°42.254 246.2 14.5 244.8 8.6
2002-04-16 08:19:53 51°10.493 2°42.224 246 14.5 244.3 8.5
2002-04-16 08:19:58 51°10.485 2°42.195 246.8 14.5 245 8.6
2002-04-16 08:20:03 51°10.476 2°42.167 246 14.5 244.5 8.4
2002-04-16 08:20:08 51°10.467 2°42.138 246.7 14.5 244.6 8.5
2002-04-16 08:20:13 51°10.459 2°42.109 246.8 14.5 244.6 8.5
2002-04-16 08:20:18 51°10.45 2°42.08 246 14.5 244.4 8.3
2002-04-16 08:20:22 51°10.444 2°42.056 246.5 14.5 244.8 8.4
2002-04-16 08:20:28 51°10.433 2°42.022 246.5 14.5 244.4 8.4
2002-04-16 08:20:33 51°10.425 2°41.993 245.8 14.5 244.6 8.4
2002-04-16 08:20:38 51°10.416 2°41.964 245.7 14.5 244.3 8.5
2002-04-16 08:20:43 51°10.407 2°41.935 245.8 14.5 244.2 8.5
2002-04-16 08:20:48 51°10.398 2°41.907 245.7 14.5 244.1 8.4
2002-04-16 08:20:53 51°10.389 2°41.878 245.7 14.4 243.8 8.5
2002-04-16 08:20:58 51°10.381 2°41.849 245.5 14.4 244.4 8.5
2002-04-16 08:21:03 51°10.372 2°41.82 246 14.5 244.4 8.4
2002-04-16 08:21:08 51°10.364 2°41.791 246.5 14.5 244.8 8.5
2002-04-16 08:21:13 51°10.355 2°41.763 246 14.5 244.5 8.5
2002-04-16 08:21:18 51°10.347 2°41.733 246.3 14.4 244.9 8.4
2002-04-16 08:21:23 51°10.337 2°41.705 246.2 14.4 243.9 8.4
2002-04-16 08:21:28 51°10.329 2°41.676 245.5 14.4 244.3 8.3
2002-04-16 08:21:33 51°10.32 2°41.648 245.3 14.4 243.5 8.2
2002-04-16 08:21:38 51°10.311 2°41.619 245.8 14.5 243.8 8.4
2002-04-16 08:21:43 51°10.302 2°41.59 245.7 14.6 244.4 8.4
2002-04-16 08:21:48 51°10.294 2°41.561 246 14.5 244.3 8.3
2002-04-16 08:21:53 51°10.285 2°41.533 245.8 14.4 244 7.9
2002-04-16 08:21:58 51°10.277 2°41.504 246 14.4 244.5 8.4
2002-04-16 08:22:02 51°10.269 2°41.481 245.8 14.4 244.5 8.3
2002-04-16 08:22:08 51°10.259 2°41.447 245.7 14.4 244.6 8.3
2002-04-16 08:22:13 51°10.25 2°41.418 246 14.4 244.9 8.3
2002-04-16 08:22:18 51°10.242 2°41.389 246.2 14.4 244.7 8.3
2002-04-16 08:22:23 51°10.233 2°41.36 246.2 14.4 244 8.3
2002-04-16 08:22:28 51°10.224 2°41.332 246.2 14.4 244.9 8.3
2002-04-16 08:22:33 51°10.216 2°41.303 246 14.3 244.8 8.3
2002-04-16 08:22:38 51°10.207 2°41.274 246 14.4 244.2 8.2
2002-04-16 08:22:43 51°10.199 2°41.246 246.7 14.4 245.2 8.4
2002-04-16 08:22:48 51°10.19 2°41.217 245.5 14.4 244.3 8.3
2002-04-16 08:22:53 51°10.182 2°41.188 246.5 14.4 244.6 8.4
2002-04-16 08:22:58 51°10.173 2°41.16 245.5 14.3 244.2 8.2
2002-04-16 08:23:03 51°10.165 2°41.131 245.8 14.3 244.6 8.3
2002-04-16 08:23:08 51°10.155 2°41.103 245.2 14.3 244 8.3
2002-04-16 08:23:13 51°10.147 2°41.074 245.5 14.4 244.4 8.3
2002-04-16 08:23:18 51°10.138 2°41.046 245.7 14.5 244.1 8.4
2002-04-16 08:23:23 51°10.13 2°41.017 245.8 14.4 244.7 8.4
2002-04-16 08:23:28 51°10.12 2°40.989 245.5 14.3 243.7 8.3
2002-04-16 08:23:33 51°10.112 2°40.959 246.3 14.4 245.1 8.2
2002-04-16 08:23:38 51°10.104 2°40.931 246.3 14.4 244.3 8.3
2002-04-16 08:23:43 51°10.095 2°40.902 245.8 14.4 244.9 8.3
2002-04-16 08:23:48 51°10.088 2°40.873 246.7 14.4 244.4 8.3
2002-04-16 08:23:53 51°10.078 2°40.845 246.5 14.4 245.3 8.1
2002-04-16 08:23:58 51°10.071 2°40.815 247 14.5 245.2 8.2
2002-04-16 08:24:03 51°10.061 2°40.787 246.5 14.4 245.1 8.3
2002-04-16 08:24:08 51°10.053 2°40.758 246 14.3 244.5 8.2
2002-04-16 08:24:13 51°10.044 2°40.73 246.3 14.4 244.5 8.3
2002-04-16 08:24:18 51°10.036 2°40.701 245.3 14.4 244.2 8.4
2002-04-16 08:24:23 51°10.027 2°40.672 245.7 14.4 244.1 8.3
2002-04-16 08:24:28 51°10.018 2°40.644 245.8 14.5 244.4 8.4
2002-04-16 08:24:33 51°10.009 2°40.615 245.7 14.5 244.3 8.3
2002-04-16 08:24:38 51°10.001 2°40.586 246.8 14.4 244.7 8.4
2002-04-16 08:24:43 51°9.993 2°40.558 246.2 14.4 244.9 8.3
2002-04-16 08:24:48 51°9.984 2°40.529 245.7 14.4 244.8 8.2
2002-04-16 08:24:53 51°9.976 2°40.499 247.2 14.4 245.6 8.3
2002-04-16 08:24:58 51°9.968 2°40.47 246.7 14.4 245.3 8.3
2002-04-16 08:25:03 51°9.959 2°40.442 246.2 14.5 244.6 8.4
2002-04-16 08:25:08 51°9.951 2°40.413 246.3 14.5 245.3 8.3
2002-04-16 08:25:13 51°9.942 2°40.384 246.5 14.5 244.5 8.3
2002-04-16 08:25:18 51°9.934 2°40.356 246.5 14.4 244.9 8.2
2002-04-16 08:25:23 51°9.925 2°40.327 246 14.4 244.3 8.3
2002-04-16 08:25:28 51°9.917 2°40.298 246.3 14.4 244 8.3
2002-04-16 08:25:32 51°9.909 2°40.276 245.3 14.4 244.2 8.3
2002-04-16 08:25:38 51°9.9 2°40.241 245.7 14.4 244.9 8.3
2002-04-16 08:25:43 51°9.891 2°40.213 246.3 14.4 244.3 8.3
2002-04-16 08:25:48 51°9.882 2°40.184 245.8 14.4 244.5 8.1
2002-04-16 08:25:53 51°9.873 2°40.156 245.8 14.4 244.2 8.4
2002-04-16 08:25:58 51°9.864 2°40.128 245.3 14.4 243.6 8.3
2002-04-16 08:26:03 51°9.856 2°40.098 245.5 14.4 244.7 8.3
2002-04-16 08:26:08 51°9.847 2°40.07 245.5 14.4 243.7 8.1
2002-04-16 08:26:13 51°9.838 2°40.041 245.2 14.5 243.8 8.3
2002-04-16 08:26:18 51°9.83 2°40.012 245.5 14.4 244 8.4
2002-04-16 08:26:23 51°9.821 2°39.984 245.7 14.4 243.6 8.4
2002-04-16 08:26:28 51°9.813 2°39.955 245.8 14.4 245 8.3
2002-04-16 08:26:33 51°9.804 2°39.927 245.8 14.3 244.5 8.2
2002-04-16 08:26:38 51°9.796 2°39.898 246.3 14.3 245.1 8.3
2002-04-16 08:26:43 51°9.787 2°39.869 246.3 14.3 244.6 8.2
2002-04-16 08:26:48 51°9.779 2°39.84 246.5 14.4 245.8 8.3
2002-04-16 08:26:53 51°9.771 2°39.811 246.8 14.4 245.4 8.3
2002-04-16 08:26:58 51°9.762 2°39.783 246.5 14.4 244.8 8.4
2002-04-16 08:27:03 51°9.754 2°39.755 246 14.3 245.2 8.4
2002-04-16 08:27:08 51°9.745 2°39.726 246.2 14.3 244.5 8.3
2002-04-16 08:27:13 51°9.737 2°39.698 246 14.3 244.5 8.2
2002-04-16 08:27:18 51°9.727 2°39.67 244.5 14.3 244 8.2
2002-04-16 08:27:23 51°9.72 2°39.641 245.8 14.4 244.6 8.3
2002-04-16 08:27:28 51°9.711 2°39.612 246.3 14.4 244.6 8.3
2002-04-16 08:27:33 51°9.703 2°39.583 246.3 14.4 245 8.1
2002-04-16 08:27:38 51°9.694 2°39.555 246.3 14.4 245.1 8.3
2002-04-16 08:27:43 51°9.685 2°39.526 246.3 14.4 244.8 8.3
2002-04-16 08:27:48 51°9.677 2°39.497 246.5 14.4 244.8 8.2
2002-04-16 08:27:53 51°9.668 2°39.469 246.2 14.4 244.4 8.2
2002-04-16 08:27:58 51°9.66 2°39.44 246.2 14.3 244.8 8.2
2002-04-16 08:28:03 51°9.651 2°39.411 246.2 14.3 244.4 8.2
2002-04-16 08:28:08 51°9.642 2°39.383 245.3 14.4 244.2 8.2
2002-04-16 08:28:13 51°9.634 2°39.354 245.7 14.4 244.4 8
2002-04-16 08:28:18 51°9.625 2°39.326 245.8 14.3 244.1 7.8
2002-04-16 08:28:22 51°9.618 2°39.303 246.2 14.3 243.9 8.3
2002-04-16 08:28:28 51°9.608 2°39.268 246.2 14.3 244.7 8
2002-04-16 08:28:33 51°9.6 2°39.24 246.2 14.3 244.4 8.1
2002-04-16 08:28:38 51°9.591 2°39.212 245.8 14.3 244.4 8
2002-04-16 08:28:43 51°9.582 2°39.183 246.5 14.3 244.9 8.2
2002-04-16 08:28:48 51°9.575 2°39.153 248.7 14.4 246.7 8.2
2002-04-16 08:28:53 51°9.567 2°39.124 249 14.4 247.5 8.3
2002-04-16 08:28:58 51°9.56 2°39.095 248.8 14.4 247.3 8.3
2002-04-16 08:29:03 51°9.553 2°39.065 250.2 14.4 249 8.3
2002-04-16 08:29:08 51°9.545 2°39.036 249.3 14.4 247.8 8.3
2002-04-16 08:29:13 51°9.537 2°39.006 250 14.4 248.3 8.3
2002-04-16 08:29:18 51°9.53 2°38.977 249.5 14.4 248.1 8.3
2002-04-16 08:29:23 51°9.522 2°38.948 249.8 14.4 248.2 8.3
2002-04-16 08:29:28 51°9.515 2°38.918 250 14.4 248.1 8.5
2002-04-16 08:29:33 51°9.508 2°38.888 251 14.4 249.1 8.4
2002-04-16 08:29:38 51°9.5 2°38.859 250.5 14.4 248.7 8.4
2002-04-16 08:29:43 51°9.494 2°38.829 251.2 14.4 249.2 8.4
2002-04-16 08:29:47 51°9.488 2°38.805 251.2 14.4 248.9 8.2
2002-04-16 08:29:53 51°9.479 2°38.769 251 14.4 249.2 8.5
2002-04-16 08:29:58 51°9.473 2°38.739 251.3 14.4 249.6 8.4
2002-04-16 08:30:03 51°9.466 2°38.71 252 14.4 249.4 8.5
2002-04-16 08:30:08 51°9.458 2°38.68 251.7 14.4 249.4 8.4
2002-04-16 08:30:13 51°9.452 2°38.65 251 14.4 249.7 8.6
2002-04-16 08:30:17 51°9.446 2°38.626 251.7 14.5 249.6 8.6
2002-04-16 08:30:23 51°9.437 2°38.59 251 14.5 249.4 8.6
2002-04-16 08:30:28 51°9.431 2°38.56 250.8 14.5 249.2 8.6
2002-04-16 08:30:33 51°9.423 2°38.531 250.2 14.4 248.4 8.6
2002-04-16 08:30:38 51°9.416 2°38.501 250.7 14.4 249.2 8.4
2002-04-16 08:30:42 51°9.41 2°38.477 250.8 14.5 248.6 8.5
2002-04-16 08:30:48 51°9.402 2°38.441 250.7 14.5 249 8.6
2002-04-16 08:30:53 51°9.394 2°38.411 251 14.5 249.2 8.6
2002-04-16 08:30:58 51°9.387 2°38.381 250.8 14.5 249.3 8.7
2002-04-16 08:31:03 51°9.38 2°38.352 251 14.4 249 8.6
2002-04-16 08:31:08 51°9.373 2°38.322 251 14.4 249 8.6
2002-04-16 08:31:13 51°9.366 2°38.292 250.7 14.5 249.1 8.7
2002-04-16 08:31:18 51°9.358 2°38.262 250.7 14.5 249.1 8.7
2002-04-16 08:31:22 51°9.353 2°38.238 250.7 14.5 249.3 8.6
2002-04-16 08:31:28 51°9.344 2°38.202 250.8 14.5 248.4 8.6
2002-04-16 08:31:33 51°9.337 2°38.172 250.8 14.4 249 8.6
2002-04-16 08:31:38 51°9.33 2°38.142 250.8 14.5 248.5 8.6
2002-04-16 08:31:43 51°9.323 2°38.112 251.7 14.5 249.8 8.6
2002-04-16 08:31:48 51°9.316 2°38.082 251.2 14.5 249.2 8.6
2002-04-16 08:31:53 51°9.309 2°38.052 251.5 14.5 249.4 8.7
2002-04-16 08:31:58 51°9.302 2°38.023 250.7 14.5 249.3 8.5
2002-04-16 08:32:02 51°9.296 2°37.998 251 14.5 249.4 8.7
2002-04-16 08:32:08 51°9.288 2°37.963 251.8 14.5 249.6 8.7
2002-04-16 08:32:13 51°9.28 2°37.934 250.8 14.4 249.1 8.4
2002-04-16 08:32:18 51°9.273 2°37.903 250.8 14.4 249.5 8.6
2002-04-16 08:32:23 51°9.266 2°37.874 250.3 14.4 248.8 8.6
2002-04-16 08:32:28 51°9.259 2°37.844 250.7 14.5 249.4 8.5
2002-04-16 08:32:32 51°9.254 2°37.82 251.5 14.5 249.6 8.4
2002-04-16 08:32:38 51°9.245 2°37.784 251.3 14.4 249.6 8.6
2002-04-16 08:32:43 51°9.238 2°37.755 250.8 14.4 249.6 8.6
2002-04-16 08:32:48 51°9.231 2°37.724 251.3 14.4 249.7 8.6
2002-04-16 08:32:53 51°9.224 2°37.695 251.2 14.5 249.7 8.5
2002-04-16 08:32:58 51°9.217 2°37.665 250.8 14.5 249.1 8.6
2002-04-16 08:33:02 51°9.212 2°37.641 251.8 14.5 249.7 8.5
2002-04-16 08:33:08 51°9.202 2°37.605 250.7 14.4 249.2 8.6
2002-04-16 08:33:13 51°9.196 2°37.575 251 14.4 248.7 8.6
2002-04-16 08:33:18 51°9.189 2°37.546 251.2 14.4 249.7 8.5
2002-04-16 08:33:23 51°9.182 2°37.516 250.3 14.4 249.1 8.5
2002-04-16 08:33:28 51°9.175 2°37.486 250.8 14.4 249 8.5
2002-04-16 08:33:33 51°9.168 2°37.457 250.5 14.4 249.3 8.5
2002-04-16 08:33:38 51°9.16 2°37.427 250.8 14.4 248.7 8.5
2002-04-16 08:33:43 51°9.153 2°37.397 250.7 14.5 249.6 8.5
2002-04-16 08:33:48 51°9.147 2°37.367 250.8 14.5 248.5 8.5
2002-04-16 08:33:53 51°9.139 2°37.338 250.7 14.4 249.5 8.5
2002-04-16 08:33:58 51°9.132 2°37.308 250.2 14.5 249 8.4
2002-04-16 08:34:03 51°9.125 2°37.278 250.8 14.4 249.1 8.4
2002-04-16 08:34:08 51°9.118 2°37.248 251 14.4 249.2 8.3
2002-04-16 08:34:13 51°9.11 2°37.219 250.2 14.4 249.2 8.3
2002-04-16 08:34:18 51°9.104 2°37.188 251.3 14.5 249.8 8.3
2002-04-16 08:34:23 51°9.097 2°37.159 251.7 14.5 249.8 8.3
2002-04-16 08:34:28 51°9.091 2°37.128 251.7 14.4 250.5 8.2
2002-04-16 08:34:33 51°9.084 2°37.099 251.7 14.4 250 8.2
2002-04-16 08:34:38 51°9.077 2°37.069 251.8 14.4 250.4 8.2
2002-04-16 08:34:43 51°9.07 2°37.039 251.3 14.4 250.5 8.2
2002-04-16 08:34:48 51°9.063 2°37.009 251.8 14.4 249.9 8.1
2002-04-16 08:34:53 51°9.056 2°36.979 252.2 14.4 250.2 8.2
2002-04-16 08:34:58 51°9.05 2°36.949 252 14.4 250.4 8.1
2002-04-16 08:35:03 51°9.042 2°36.92 251 14.4 250 8.1
2002-04-16 08:35:08 51°9.036 2°36.89 251.3 14.4 249.9 8.1
2002-04-16 08:35:13 51°9.029 2°36.86 251.2 14.4 249.3 8.1
2002-04-16 08:35:18 51°9.022 2°36.83 251.7 14.4 250 8.1
2002-04-16 08:35:23 51°9.015 2°36.8 251.5 14.4 249.7 8
2002-04-16 08:35:28 51°9.008 2°36.77 251.3 14.4 249.9 8
2002-04-16 08:35:33 51°9.002 2°36.74 251.3 14.4 249.8 8
2002-04-16 08:35:38 51°8.995 2°36.71 251.7 14.4 250.2 8
2002-04-16 08:35:43 51°8.988 2°36.681 250.7 14.4 249.6 8
2002-04-16 08:35:48 51°8.981 2°36.651 251.2 14.4 250 7.9
2002-04-16 08:35:53 51°8.974 2°36.621 251.2 14.4 249.6 7.9
2002-04-16 08:35:58 51°8.967 2°36.591 251.2 14.4 250.2 8
2002-04-16 08:36:03 51°8.96 2°36.562 251 14.4 249.6 7.9
2002-04-16 08:36:08 51°8.953 2°36.532 251.2 14.4 249.4 7.7
2002-04-16 08:36:13 51°8.946 2°36.502 252 14.4 250.1 7.9
2002-04-16 08:36:18 51°8.94 2°36.472 251.2 14.4 250.4 7.8
2002-04-16 08:36:23 51°8.932 2°36.442 250.7 14.4 249.5 7.8
2002-04-16 08:36:28 51°8.926 2°36.412 252 14.4 250.7 7.8
2002-04-16 08:36:33 51°8.919 2°36.383 251.3 14.3 250.3 7.8
2002-04-16 08:36:38 51°8.913 2°36.353 252.5 14.3 251.4 7.9
2002-04-16 08:36:43 51°8.907 2°36.322 253.5 14.4 252.2 7.9
2002-04-16 08:36:48 51°8.901 2°36.292 253.7 14.4 251.6 7.9
2002-04-16 08:36:53 51°8.895 2°36.261 254.5 14.4 252.7 7.9
2002-04-16 08:36:58 51°8.889 2°36.231 254.2 14.4 252.9 7.9
2002-04-16 08:37:02 51°8.884 2°36.207 253.5 14.4 252.4 8
2002-04-16 08:37:08 51°8.878 2°36.17 254.3 14.4 251.8 7.8
2002-04-16 08:37:13 51°8.871 2°36.14 253.8 14.5 252 8
2002-04-16 08:37:18 51°8.865 2°36.11 253.2 14.5 252.2 8
2002-04-16 08:37:23 51°8.858 2°36.079 253.8 14.5 251.5 8
2002-04-16 08:37:28 51°8.852 2°36.049 253.3 14.5 252 8.1
2002-04-16 08:37:33 51°8.846 2°36.019 253.2 14.5 251.4 8.1
2002-04-16 08:37:38 51°8.839 2°35.988 253.2 14.5 251.6 8.1
2002-04-16 08:37:43 51°8.833 2°35.957 254.3 14.6 251.7 8.2
2002-04-16 08:37:48 51°8.826 2°35.927 253.2 14.6 251.9 8.2
2002-04-16 08:37:53 51°8.821 2°35.896 254 14.7 252.2 8.2
2002-04-16 08:37:58 51°8.814 2°35.866 253.3 14.6 251.6 8.3
2002-04-16 08:38:03 51°8.808 2°35.835 253 14.6 251.6 8.3
2002-04-16 08:38:08 51°8.801 2°35.804 253.3 14.7 251.3 8.4
2002-04-16 08:38:13 51°8.794 2°35.774 253 14.7 250.6 8.1
2002-04-16 08:38:18 51°8.788 2°35.743 252.3 14.7 250.9 8.4
2002-04-16 08:38:23 51°8.781 2°35.712 253.2 14.8 251.1 8.6
2002-04-16 08:38:28 51°8.774 2°35.681 252.3 14.8 251.2 -999
2002-04-16 08:38:33 51°8.767 2°35.65 252 14.8 250.3 8.8
2002-04-16 08:38:38 51°8.76 2°35.62 252.2 14.8 250.9 8.6
2002-04-16 08:38:43 51°8.754 2°35.588 252.3 14.9 250.6 8.7
2002-04-16 08:38:48 51°8.747 2°35.558 252.5 14.9 250.8 8.8
2002-04-16 08:38:53 51°8.739 2°35.527 252 14.9 250.1 8.7
2002-04-16 08:38:58 51°8.733 2°35.495 253.2 15 251 9
2002-04-16 08:39:03 51°8.726 2°35.464 252.2 15 250.5 9.1
2002-04-16 08:39:08 51°8.719 2°35.433 252.8 15 251.4 9.2
2002-04-16 08:39:13 51°8.712 2°35.402 253 15 250.1 9.1
2002-04-16 08:39:18 51°8.706 2°35.37 253.3 15.1 251.4 9.3
2002-04-16 08:39:23 51°8.698 2°35.339 251.5 15.1 250.3 9.4
2002-04-16 08:39:28 51°8.692 2°35.307 252.8 15.1 251 9.5
2002-04-16 08:39:33 51°8.684 2°35.276 252.8 15.1 250.4 9.6
2002-04-16 08:39:38 51°8.677 2°35.244 252.3 15.2 250.4 9.6
2002-04-16 08:39:43 51°8.67 2°35.212 252.7 15.2 250.2 9.7
2002-04-16 08:39:48 51°8.663 2°35.181 253 15.2 250.7 9.9
2002-04-16 08:39:53 51°8.656 2°35.149 252.3 15.2 250.6 9.7
2002-04-16 08:39:58 51°8.649 2°35.117 252.7 15.3 250.7 9.8
2002-04-16 08:40:02 51°8.644 2°35.092 252.5 15.2 250.6 10.2
2002-04-16 08:40:08 51°8.635 2°35.054 252.8 15.2 250.5 10.3
2002-04-16 08:40:13 51°8.628 2°35.022 252.8 15.2 250.6 10.5
2002-04-16 08:40:18 51°8.621 2°34.991 252.7 15.2 250.5 10.6
2002-04-16 08:40:23 51°8.614 2°34.959 252.7 15.2 250.6 10.7
2002-04-16 08:40:28 51°8.607 2°34.928 252 15.2 250 10.8
2002-04-16 08:40:33 51°8.6 2°34.896 252.2 15.2 250.3 11
2002-04-16 08:40:38 51°8.592 2°34.865 252.5 15.2 250.5 11.1
2002-04-16 08:40:43 51°8.586 2°34.833 252.3 15.2 250.8 11.3
2002-04-16 08:40:48 51°8.579 2°34.801 253.3 15.2 251.2 11.5
2002-04-16 08:40:53 51°8.572 2°34.77 252.7 15.2 250.3 11.6
2002-04-16 08:40:58 51°8.565 2°34.738 253.2 15.2 251.2 11.7
2002-04-16 08:41:03 51°8.558 2°34.707 252.7 15.2 250.7 12
2002-04-16 08:41:08 51°8.551 2°34.675 253 15.2 250.3 12.3
2002-04-16 08:41:13 51°8.543 2°34.644 253 15.2 250.4 12.3
2002-04-16 08:41:18 51°8.537 2°34.612 253.3 15.2 250.1 12.4
2002-04-16 08:41:23 51°8.529 2°34.581 253.3 15.2 250.5 12.5
2002-04-16 08:41:28 51°8.523 2°34.549 252.7 15.1 250.8 12.8
2002-04-16 08:41:33 51°8.516 2°34.518 253.5 15.1 250.5 12.9
2002-04-16 08:41:38 51°8.508 2°34.486 252.5 15.1 250.5 13.1
2002-04-16 08:41:43 51°8.502 2°34.454 253 15.2 250.4 13.2
2002-04-16 08:41:48 51°8.494 2°34.424 252.8 15.1 250.5 13.4
2002-04-16 08:41:53 51°8.488 2°34.392 252.8 15.1 250.6 13.6
2002-04-16 08:41:58 51°8.481 2°34.361 252.8 15.1 251 13.7
2002-04-16 08:42:03 51°8.474 2°34.329 252.8 15.1 250.5 13.8
2002-04-16 08:42:08 51°8.466 2°34.298 253.2 15.1 250.3 13.9
2002-04-16 08:42:13 51°8.459 2°34.267 252.5 15.1 249.7 14.1
2002-04-16 08:42:18 51°8.451 2°34.236 249.8 15.1 249.1 14.2
2002-04-16 08:42:23 51°8.443 2°34.206 248.2 15.1 247.1 14.2
2002-04-16 08:42:28 51°8.434 2°34.176 246.3 15.1 246 14.2
2002-04-16 08:42:33 51°8.424 2°34.146 245.2 15.1 244 14.2
2002-04-16 08:42:38 51°8.414 2°34.116 243.2 15.1 243 14.2
2002-04-16 08:42:43 51°8.403 2°34.089 240.2 15.1 239.8 14.2
2002-04-16 08:42:48 51°8.392 2°34.061 238.5 15 238.3 14.1
2002-04-16 08:42:53 51°8.38 2°34.033 236.8 15 236.9 14
2002-04-16 08:42:58 51°8.368 2°34.006 235.7 15 235.8 14
2002-04-16 08:43:03 51°8.355 2°33.98 234.3 15 234.3 13.9
2002-04-16 08:43:08 51°8.342 2°33.953 232.7 15.1 232.7 13.9
2002-04-16 08:43:13 51°8.329 2°33.927 231.8 15 232.1 13.7
2002-04-16 08:43:18 51°8.316 2°33.902 231.2 15 231.3 13.5
2002-04-16 08:43:23 51°8.303 2°33.876 230.7 15 231.2 13.3
2002-04-16 08:43:28 51°8.289 2°33.851 231.3 15.1 230.4 13
2002-04-16 08:43:33 51°8.276 2°33.825 230.7 15.1 230.7 12.9
2002-04-16 08:43:38 51°8.262 2°33.801 227.8 15 229.2 12.8
2002-04-16 08:43:43 51°8.247 2°33.779 224.8 14.8 226.1 12.5
2002-04-16 08:43:48 51°8.233 2°33.756 222.5 14.8 224.5 12.1
2002-04-16 08:43:53 51°8.217 2°33.734 221.8 14.9 222.3 11.8
2002-04-16 08:43:58 51°8.202 2°33.713 221.5 14.8 222.1 11.4
2002-04-16 08:44:03 51°8.187 2°33.69 222.5 14.7 222.4 11.2
2002-04-16 08:44:08 51°8.172 2°33.668 224 14.7 223.5 11
2002-04-16 08:44:13 51°8.158 2°33.645 224.8 14.7 224.7 10.8
2002-04-16 08:44:18 51°8.145 2°33.624 225 14.3 224.6 10.4
2002-04-16 08:44:23 51°8.132 2°33.605 224.7 13.3 225.1 10.2
2002-04-16 08:44:28 51°8.121 2°33.586 224.3 12.3 225.1 10.1
2002-04-16 08:44:33 51°8.11 2°33.568 224.5 11.7 224.8 10.2
2002-04-16 08:44:38 51°8.099 2°33.552 224 11.1 224.7 10.1
2002-04-16 08:44:42 51°8.091 2°33.54 223.8 10.4 224.3 9.9
2002-04-16 08:44:48 51°8.079 2°33.523 223.2 9.8 223.4 10
2002-04-16 08:44:53 51°8.07 2°33.509 222.3 9.4 223.1 9.9
2002-04-16 08:44:58 51°8.061 2°33.497 221.8 9.1 222.5 9.7
2002-04-16 08:45:03 51°8.052 2°33.485 221 8.6 221.6 9.6
2002-04-16 08:45:08 51°8.043 2°33.473 219.8 8.2 220.8 9.2
2002-04-16 08:45:13 51°8.035 2°33.462 218.8 8 220.3 9.2
2002-04-16 08:45:18 51°8.027 2°33.452 217.3 7.7 219.9 9.3
2002-04-16 08:45:22 51°8.021 2°33.444 215.7 7.4 218.4 9.1
2002-04-16 08:45:28 51°8.012 2°33.434 213.5 7 216.6 9.1
2002-04-16 08:45:33 51°8.004 2°33.425 211.2 6.8 215.6 8.9
2002-04-16 08:45:38 51°7.996 2°33.418 208.7 6.6 214.5 8.8
2002-04-16 08:45:43 51°7.989 2°33.411 206.2 6.4 212.1 8.8
2002-04-16 08:45:48 51°7.982 2°33.405 204.2 6.2 210.2 8.5
2002-04-16 08:45:53 51°7.974 2°33.398 202 6 208.3 8.6
2002-04-16 08:45:58 51°7.967 2°33.393 200.8 5.9 207.2 8.5
2002-04-16 08:46:03 51°7.96 2°33.387 200 5.7 206 8.5
2002-04-16 08:46:08 51°7.954 2°33.382 199.5 5.5 205.8 8.3
2002-04-16 08:46:13 51°7.947 2°33.377 199.3 5.4 205.3 8.5
2002-04-16 08:46:18 51°7.94 2°33.372 199 5.4 205.1 8.2
2002-04-16 08:46:23 51°7.934 2°33.367 199.8 5.3 205.1 8.1
2002-04-16 08:46:28 51°7.928 2°33.362 200.7 5.1 205.5 8
2002-04-16 08:46:33 51°7.921 2°33.357 202 5.1 206.7 8.1
2002-04-16 08:46:38 51°7.916 2°33.352 204.2 5 208.1 8
2002-04-16 08:46:43 51°7.91 2°33.346 206 4.9 209.6 7.8
2002-04-16 08:46:48 51°7.904 2°33.341 208.8 4.9 210.7 8
2002-04-16 08:46:53 51°7.899 2°33.335 211 4.8 212.6 8
2002-04-16 08:46:58 51°7.893 2°33.329 213.2 4.7 214.6 7.9
2002-04-16 08:47:03 51°7.888 2°33.323 215.7 4.7 216.1 7.8
2002-04-16 08:47:08 51°7.883 2°33.316 217.8 4.6 218.2 -999
2002-04-16 08:47:13 51°7.878 2°33.309 220.3 4.6 220.1 7.7
2002-04-16 08:47:18 51°7.873 2°33.303 222.7 4.6 220.8 7.8
2002-04-16 08:47:23 51°7.869 2°33.296 225 4.5 222.7 7.7
2002-04-16 08:47:28 51°7.864 2°33.289 227.2 4.5 223.3 7.7
2002-04-16 08:47:33 51°7.86 2°33.282 229.3 4.4 225.3 7.4
2002-04-16 08:47:38 51°7.856 2°33.275 231 4.4 225.8 7.2
2002-04-16 08:47:43 51°7.852 2°33.268 233 4.4 227.9 7.5
2002-04-16 08:47:48 51°7.849 2°33.261 235.7 4.3 228.6 7.4
2002-04-16 08:47:53 51°7.845 2°33.253 237.5 4.2 231.5 7.3
2002-04-16 08:47:58 51°7.842 2°33.246 239.5 4.2 233 7.4
2002-04-16 08:48:03 51°7.838 2°33.239 241.7 4.2 234.6 7.4
2002-04-16 08:48:08 51°7.835 2°33.231 244.3 4.1 234.8 7.2
2002-04-16 08:48:13 51°7.832 2°33.224 246.5 4 237 7.4
2002-04-16 08:48:18 51°7.829 2°33.216 249 4 238.9 -999
2002-04-16 08:48:23 51°7.826 2°33.209 251.8 3.9 239.8 7.5
2002-04-16 08:48:29 51°7.823 2°33.2 254.3 3.8 241.1 7.5
2002-04-16 08:48:33 51°7.822 2°33.194 257 3.8 243.2 7.2
2002-04-16 08:48:39 51°7.819 2°33.185 259.7 3.7 245.1 7.4
2002-04-16 08:48:43 51°7.818 2°33.179 262.2 3.6 245.9 6.5
2002-04-16 08:48:48 51°7.816 2°33.172 264.3 3.6 247.8 7.4
2002-04-16 08:48:53 51°7.815 2°33.165 266.7 3.5 249.2 6.3
2002-04-16 08:48:58 51°7.813 2°33.157 269.3 3.4 251.2 7.6
2002-04-16 08:49:03 51°7.812 2°33.15 271.7 3.4 251.8 7.6
2002-04-16 08:49:08 51°7.81 2°33.143 274 3.3 253.6 7.2
2002-04-16 08:49:13 51°7.809 2°33.137 276.2 3.2 255.1 7.7
2002-04-16 08:49:18 51°7.808 2°33.13 278.2 3.2 256.2 7.6
2002-04-16 08:49:23 51°7.807 2°33.123 280.3 3.1 257.5 7.8
2002-04-16 08:49:28 51°7.807 2°33.117 282.3 3.1 258.6 7.8
2002-04-16 08:49:33 51°7.806 2°33.11 284.3 3 259.1 7.5
2002-04-16 08:49:38 51°7.805 2°33.104 286.5 3 259.8 7.8
2002-04-16 08:49:43 51°7.805 2°33.097 288.2 3 260.1 7.6
2002-04-16 08:49:48 51°7.804 2°33.091 289 2.9 261.1 7.9
2002-04-16 08:49:53 51°7.804 2°33.085 289.5 2.9 261.9 7.6
2002-04-16 08:49:58 51°7.803 2°33.078 289.7 2.9 261.3 7.9
2002-04-16 08:50:03 51°7.802 2°33.072 290.2 3 261.6 7.8
2002-04-16 08:50:08 51°7.802 2°33.065 290.3 3 262 8
2002-04-16 08:50:13 51°7.802 2°33.058 291.3 3.1 263.3 8
2002-04-16 08:50:18 51°7.801 2°33.051 292.2 3.2 264.3 8
2002-04-16 08:50:23 51°7.801 2°33.044 293 3.2 265.8 8.1
2002-04-16 08:50:28 51°7.801 2°33.036 293.8 3.3 266 8.3
2002-04-16 08:50:33 51°7.801 2°33.029 295.2 3.3 267.2 8.2
2002-04-16 08:50:38 51°7.801 2°33.022 296.5 3.3 269.7 8.2
2002-04-16 08:50:42 51°7.801 2°33.016 297.3 3.4 271.3 8.2
2002-04-16 08:50:48 51°7.801 2°33.007 298.7 3.4 272.4 8
2002-04-16 08:50:53 51°7.802 2°32.999 300 3.4 273.7 8.3
2002-04-16 08:50:58 51°7.802 2°32.992 301.5 3.4 275.4 8.5
2002-04-16 08:51:03 51°7.803 2°32.984 302.7 3.4 275.7 8.5
2002-04-16 08:51:08 51°7.803 2°32.977 304.3 3.4 277.8 8.7
2002-04-16 08:51:13 51°7.804 2°32.969 305.3 3.4 279.2 8.6
2002-04-16 08:51:18 51°7.805 2°32.962 307 3.4 280.5 8.8
2002-04-16 08:51:23 51°7.807 2°32.954 308.2 3.5 282.7 8.9
2002-04-16 08:51:28 51°7.808 2°32.947 309.7 3.5 284.4 8.6
2002-04-16 08:51:33 51°7.809 2°32.94 311.3 3.5 285.7 8.9
2002-04-16 08:51:38 51°7.811 2°32.932 312.7 3.5 287.7 8.7
2002-04-16 08:51:43 51°7.812 2°32.925 313.7 3.5 288.8 9.1
2002-04-16 08:51:48 51°7.814 2°32.918 314.5 3.5 289 8.8
2002-04-16 08:51:53 51°7.816 2°32.91 315.3 3.5 290.1 9.2
2002-04-16 08:51:58 51°7.817 2°32.903 315.7 3.6 290.9 9.4
2002-04-16 08:52:03 51°7.819 2°32.895 316 3.6 290.9 9.2
2002-04-16 08:52:08 51°7.821 2°32.888 316.3 3.6 291.1 9.6
2002-04-16 08:52:13 51°7.823 2°32.881 316.5 3.6 291.8 9.6
2002-04-16 08:52:18 51°7.825 2°32.873 316.7 3.6 292.2 9.5
2002-04-16 08:52:23 51°7.827 2°32.866 317.2 3.6 292.5 9.7
2002-04-16 08:52:28 51°7.829 2°32.858 317.3 3.7 292.5 10
2002-04-16 08:52:33 51°7.83 2°32.851 317.7 3.7 292.7 10.2
2002-04-16 08:52:38 51°7.833 2°32.844 318.2 3.6 293.3 10.1
2002-04-16 08:52:43 51°7.835 2°32.836 318.3 3.7 293.5 9.9
2002-04-16 08:52:48 51°7.837 2°32.828 318.5 3.7 293.8 10.4
2002-04-16 08:52:53 51°7.839 2°32.821 318.7 3.7 293.9 10.4
2002-04-16 08:52:58 51°7.841 2°32.813 318.7 3.7 294.1 10.7
2002-04-16 08:53:03 51°7.843 2°32.806 318.8 3.7 293.9 10.6
2002-04-16 08:53:08 51°7.845 2°32.798 319 3.7 293.8 10.5
2002-04-16 08:53:13 51°7.847 2°32.791 319.3 3.7 293.9 11.1
2002-04-16 08:53:18 51°7.849 2°32.784 319 3.6 293.6 10.9
2002-04-16 08:53:22 51°7.851 2°32.778 319.3 3.6 292.8 10.9
2002-04-16 08:53:28 51°7.853 2°32.769 319.7 3.4 292.4 11.4
2002-04-16 08:53:33 51°7.855 2°32.763 319.7 3.4 291.9 11.3
2002-04-16 08:53:38 51°7.856 2°32.756 319.7 3.3 291 11.3
2002-04-16 08:53:43 51°7.858 2°32.749 320 3.2 289.9 11.7
2002-04-16 08:53:48 51°7.859 2°32.743 320.3 3.2 290.5 11.5
2002-04-16 08:53:53 51°7.861 2°32.736 320 3.1 290.1 11.9
2002-04-16 08:53:58 51°7.862 2°32.73 320 3.1 289.6 11.8
2002-04-16 08:54:03 51°7.863 2°32.724 320.3 3 288.7 11.9
2002-04-16 08:54:08 51°7.865 2°32.717 320.2 2.9 287.5 11.8
2002-04-16 08:54:13 51°7.865 2°32.712 320.5 2.9 286.7 12.1